Union Springs, Louisiana
Current Conditions -  °F | °C
As of 7:35 PM on Monday 22 Dec 2014 (Local Time) from KIER Reporting Station
Clear Clear  
Wind Chill: 61°   Ceiling: Unl
Heat Index: 61°   Visibility: 10mi
Dew Point: 58°   Wind: 0mph
Humidity: 91%   Direction: NA
Pressure: 29.64"   Gusts: NA
Location:  31.7915°N, 93.7011°W
Report Text: KIER 230135Z AUTO 00000KT 10SM CLR 16/15 A2964 RMK AO2 T01600146
Loading
Personal Weather Stations






























Interactive Weather Map New forecast layout! Learn more

10-Day Weather Forecast

Advertisements
Track Severe Weather on mobile